createdAt,value
2023-01-27T00:00:45.222Z,55.78
2023-01-27T00:03:25.069Z,49.88
2023-01-27T00:05:55.587Z,55.38
2023-01-27T00:08:24.996Z,51.45
2023-01-27T00:11:18.241Z,56.67
2023-01-27T00:13:46.779Z,47.20
2023-01-27T00:16:15.828Z,47.25
2023-01-27T00:18:45.336Z,53.63
2023-01-27T00:21:32.904Z,52.38
2023-01-27T00:24:20.265Z,54.30
2023-01-27T00:26:49.453Z,43.67
2023-01-27T00:29:20.733Z,51.85
2023-01-27T00:32:07.411Z,48.40
2023-01-27T00:34:36.845Z,44.33
2023-01-27T00:37:08.469Z,46.35
2023-01-27T00:39:37.934Z,51.67
2023-01-27T00:42:07.080Z,46.53
2023-01-27T00:44:38.239Z,44.67
2023-01-27T00:47:07.359Z,46.05
2023-01-27T00:49:36.880Z,50.08
2023-01-27T00:52:07.535Z,47.78
2023-01-27T00:54:37.176Z,54.67
2023-01-27T00:57:06.572Z,56.03
2023-01-27T00:59:35.830Z,56.58
2023-01-27T01:02:05.067Z,52.85
2023-01-27T01:04:34.412Z,49.00
2023-01-27T01:07:03.449Z,54.57
2023-01-27T01:09:34.476Z,54.08
2023-01-27T01:12:03.509Z,51.63
2023-01-27T01:17:02.285Z,46.17
2023-01-27T01:19:32.105Z,51.47
2023-01-27T01:22:01.165Z,63.30
2023-01-27T01:24:30.587Z,59.05
2023-01-27T01:27:01.550Z,49.97
2023-01-27T01:29:31.255Z,58.17
2023-01-27T01:32:01.776Z,55.40
2023-01-27T01:34:33.967Z,51.05
2023-01-27T01:37:03.074Z,56.53
2023-01-27T01:39:32.794Z,56.35
2023-01-27T01:42:03.430Z,55.30
2023-01-27T01:44:34.096Z,50.90
2023-01-27T01:47:03.131Z,56.95
2023-01-27T01:49:36.257Z,56.03
2023-01-27T01:52:10.472Z,54.55
2023-01-27T01:54:44.359Z,54.00
2023-01-27T01:57:18.353Z,55.13
2023-01-27T01:59:51.639Z,58.28
2023-01-27T02:02:26.326Z,54.25
2023-01-27T02:05:00.832Z,52.85
2023-01-27T02:07:34.934Z,52.58
2023-01-27T02:10:05.424Z,52.55
2023-01-27T02:12:39.357Z,46.83
2023-01-27T02:15:11.462Z,52.67
2023-01-27T02:17:41.035Z,58.22
2023-01-27T02:20:17.131Z,60.15
2023-01-27T02:22:57.053Z,61.50
2023-01-27T02:25:33.620Z,54.38
2023-01-27T02:28:04.731Z,57.20
2023-01-27T02:30:34.417Z,57.58
2023-01-27T02:33:03.701Z,63.10
2023-01-27T02:35:37.985Z,54.78
2023-01-27T02:38:08.670Z,47.22
2023-01-27T02:40:39.062Z,57.40
2023-01-27T02:43:09.883Z,54.45
2023-01-27T02:45:39.599Z,52.30
2023-01-27T02:48:08.728Z,48.05
2023-01-27T02:50:38.006Z,56.03
2023-01-27T02:53:07.585Z,55.17
2023-01-27T02:55:38.837Z,53.58
2023-01-27T02:58:10.420Z,46.28
2023-01-27T03:00:48.514Z,55.78
2023-01-27T03:03:17.819Z,53.55
2023-01-27T03:05:47.517Z,49.10
2023-01-27T03:08:16.674Z,57.78
2023-01-27T03:10:46.478Z,49.42
2023-01-27T03:13:17.071Z,48.50
2023-01-27T03:16:03.846Z,48.03
2023-01-27T03:18:32.931Z,42.95
2023-01-27T03:21:04.436Z,43.28
2023-01-27T03:23:34.802Z,51.10
2023-01-27T03:26:09.150Z,47.72
2023-01-27T03:28:42.514Z,46.47
2023-01-27T03:31:20.454Z,43.85
2023-01-27T03:34:02.123Z,36.70
2023-01-27T03:36:52.848Z,45.72
2023-01-27T03:39:39.395Z,41.83
2023-01-27T03:42:26.489Z,39.13
2023-01-27T03:45:16.048Z,39.05
2023-01-27T03:47:45.473Z,46.22
2023-01-27T03:50:19.445Z,38.20
2023-01-27T03:53:04.013Z,45.95
2023-01-27T03:55:33.901Z,41.30
2023-01-27T03:58:14.737Z,39.78
2023-01-27T04:00:45.788Z,40.55
2023-01-27T04:03:32.898Z,36.53
2023-01-27T04:06:22.883Z,38.08
2023-01-27T04:08:52.574Z,40.45
2023-01-27T04:11:39.305Z,31.45
2023-01-27T04:14:10.293Z,33.13
2023-01-27T04:16:41.084Z,37.17
2023-01-27T04:19:12.507Z,30.80
2023-01-27T04:21:42.257Z,33.20
2023-01-27T04:26:47.144Z,28.98
2023-01-27T04:29:17.194Z,32.47
2023-01-27T04:31:47.740Z,33.78
2023-01-27T04:34:17.121Z,31.75
2023-01-27T04:36:47.402Z,31.90
2023-01-27T04:39:19.368Z,30.08
2023-01-27T04:41:49.215Z,20.30
2023-01-27T04:46:51.613Z,17.70
2023-01-27T04:49:21.334Z,20.90
2023-01-27T04:51:50.600Z,18.05
2023-01-27T04:54:19.936Z,7.75
2023-01-27T04:56:58.017Z,14.02
2023-01-27T04:59:27.672Z,8.38
2023-01-27T05:01:59.296Z,10.20
2023-01-27T05:04:28.759Z,7.20
2023-01-27T05:06:57.745Z,8.20
2023-01-27T05:09:27.335Z,7.18
2023-01-27T05:11:56.447Z,7.15
2023-01-27T05:14:26.155Z,8.82
2023-01-27T05:16:55.810Z,6.03
2023-01-27T05:19:26.781Z,6.68
2023-01-27T05:21:56.044Z,7.10
2023-01-27T05:24:25.429Z,5.78
2023-01-27T05:26:54.634Z,7.53
2023-01-27T05:29:24.209Z,6.97
2023-01-27T05:31:53.319Z,9.27
2023-01-27T05:34:22.641Z,6.45
2023-01-27T05:36:53.146Z,8.32
2023-01-27T05:39:22.636Z,9.88
2023-01-27T05:41:51.613Z,9.50
2023-01-27T05:44:21.023Z,11.35
2023-01-27T05:46:50.244Z,8.77
2023-01-27T05:49:19.800Z,11.73
2023-01-27T05:51:48.930Z,11.25
2023-01-27T05:54:19.594Z,6.03
2023-01-27T05:56:48.831Z,10.25
2023-01-27T05:59:18.391Z,9.65
2023-01-27T06:01:47.638Z,18.08
2023-01-27T06:04:17.305Z,7.25
2023-01-27T06:06:46.286Z,5.18
2023-01-27T06:09:15.693Z,6.68
2023-01-27T06:11:46.075Z,7.78
2023-01-27T06:14:16.211Z,7.18
2023-01-27T06:16:47.318Z,7.75
2023-01-27T06:19:16.774Z,7.20
2023-01-27T06:21:45.792Z,5.20
2023-01-27T06:24:15.267Z,12.65
2023-01-27T06:26:45.776Z,7.47
2023-01-27T06:29:15.159Z,6.60
2023-01-27T06:31:44.140Z,4.47
2023-01-27T06:34:13.484Z,5.38
2023-01-27T06:36:42.651Z,5.50
2023-01-27T06:39:12.974Z,5.15
2023-01-27T06:41:42.763Z,4.80
2023-01-27T06:46:42.924Z,4.72
2023-01-27T06:51:41.228Z,4.70
2023-01-27T06:54:11.302Z,4.80
2023-01-27T06:56:40.411Z,8.30
2023-01-27T06:59:09.809Z,16.75
2023-01-27T07:01:40.396Z,8.07
2023-01-27T07:04:09.949Z,5.80
2023-01-27T07:06:39.439Z,6.80
2023-01-27T07:09:08.797Z,9.27
2023-01-27T07:11:37.985Z,3.85
2023-01-27T07:14:09.604Z,6.38
2023-01-27T07:16:41.129Z,5.97
2023-01-27T07:19:10.683Z,7.18
2023-01-27T07:21:39.888Z,9.88
2023-01-27T07:24:09.913Z,4.68
2023-01-27T07:26:38.927Z,7.30
2023-01-27T07:29:08.209Z,5.18
2023-01-27T07:31:37.226Z,5.18
2023-01-27T07:34:07.926Z,7.00
2023-01-27T07:36:37.227Z,8.77
2023-01-27T07:39:06.743Z,4.60
2023-01-27T07:41:36.299Z,3.47
2023-01-27T07:44:05.906Z,5.25
2023-01-27T07:46:36.139Z,6.93
2023-01-27T07:49:07.054Z,5.03
2023-01-27T07:51:36.223Z,13.25
2023-01-27T07:54:06.367Z,5.22
2023-01-27T07:59:06.025Z,10.48
2023-01-27T08:01:35.080Z,10.80
2023-01-27T08:04:04.396Z,5.45
2023-01-27T08:06:34.797Z,5.72
2023-01-27T08:09:04.182Z,6.18
2023-01-27T08:11:33.715Z,8.40
2023-01-27T08:16:31.983Z,7.63
2023-01-27T08:19:01.653Z,10.75
2023-01-27T08:21:33.043Z,6.27
2023-01-27T08:24:05.581Z,6.03
2023-01-27T08:26:34.777Z,8.55
2023-01-27T08:29:04.044Z,6.78
2023-01-27T08:31:33.221Z,4.15
2023-01-27T08:34:02.554Z,5.35
2023-01-27T08:36:31.699Z,4.80
2023-01-27T08:39:01.027Z,6.15
2023-01-27T08:41:31.881Z,4.93
2023-01-27T08:44:01.307Z,6.05
2023-01-27T08:46:30.323Z,4.33
2023-01-27T08:48:59.991Z,5.80
2023-01-27T08:51:29.335Z,3.85
2023-01-27T08:53:58.904Z,5.55
2023-01-27T08:56:28.009Z,4.57
2023-01-27T08:59:01.380Z,5.43
2023-01-27T09:01:30.669Z,3.10
2023-01-27T09:04:00.041Z,5.63
2023-01-27T09:06:29.218Z,5.18
2023-01-27T09:09:12.011Z,4.78
2023-01-27T09:11:43.046Z,4.88
2023-01-27T09:14:14.237Z,2.45
2023-01-27T09:16:43.579Z,5.47
2023-01-27T09:19:13.550Z,7.05
2023-01-27T09:21:42.918Z,4.10
2023-01-27T09:24:13.806Z,5.82
2023-01-27T09:26:42.947Z,5.95
2023-01-27T09:29:13.829Z,5.90
2023-01-27T09:31:43.125Z,7.43
2023-01-27T09:34:12.715Z,8.48
2023-01-27T09:36:48.599Z,4.20
2023-01-27T09:39:21.132Z,10.60
2023-01-27T09:42:15.394Z,4.70
2023-01-27T09:45:21.893Z,4.50
2023-01-27T09:48:05.316Z,5.55
2023-01-27T09:50:45.364Z,7.63
2023-01-27T09:53:39.612Z,4.75
2023-01-27T09:56:16.552Z,2.75
2023-01-27T09:59:05.075Z,2.20
2023-01-27T10:01:45.425Z,3.72
2023-01-27T10:04:44.451Z,4.47
2023-01-27T10:07:36.870Z,4.60
2023-01-27T10:10:28.343Z,5.03
2023-01-27T10:13:13.270Z,3.17
2023-01-27T10:16:08.300Z,6.90
2023-01-27T10:19:02.498Z,6.32
2023-01-27T10:21:42.888Z,7.53
2023-01-27T10:24:26.876Z,2.83
2023-01-27T10:27:01.915Z,2.42
2023-01-27T10:29:39.792Z,5.53
2023-01-27T10:32:16.412Z,4.85
2023-01-27T10:34:53.495Z,5.80
2023-01-27T10:37:30.090Z,5.85
2023-01-27T10:40:07.032Z,8.05
2023-01-27T10:42:45.248Z,4.55
2023-01-27T10:45:27.171Z,6.80
2023-01-27T10:48:22.461Z,7.53
2023-01-27T10:50:58.043Z,7.85
2023-01-27T10:53:33.594Z,3.90
2023-01-27T10:56:09.780Z,5.07
2023-01-27T10:58:55.592Z,3.45
2023-01-27T11:01:32.543Z,4.13
2023-01-27T11:04:07.340Z,4.05
2023-01-27T11:06:41.599Z,4.60
2023-01-27T11:09:23.601Z,3.30
2023-01-27T11:11:55.249Z,2.95
2023-01-27T11:14:28.880Z,4.13
2023-01-27T11:17:05.111Z,3.70
2023-01-27T11:19:48.191Z,6.13
2023-01-27T11:22:25.420Z,2.10
2023-01-27T11:25:03.773Z,4.97
2023-01-27T11:27:54.919Z,4.30
2023-01-27T11:30:32.580Z,3.35
2023-01-27T11:33:11.335Z,2.95
2023-01-27T11:35:40.490Z,5.90
2023-01-27T11:38:17.912Z,5.43
2023-01-27T11:40:50.044Z,5.28
2023-01-27T11:43:22.490Z,6.40
2023-01-27T11:46:03.062Z,5.25
2023-01-27T11:48:41.212Z,4.68
2023-01-27T11:51:18.533Z,4.15
2023-01-27T11:53:54.130Z,6.18
2023-01-27T11:56:24.539Z,3.05
2023-01-27T11:59:01.016Z,5.40
2023-01-27T12:01:44.756Z,3.38
2023-01-27T12:04:20.922Z,8.07
2023-01-27T12:06:54.298Z,3.90
2023-01-27T12:09:37.197Z,3.60
2023-01-27T12:12:24.795Z,4.30
2023-01-27T12:14:56.224Z,4.50
2023-01-27T12:17:31.933Z,4.53
2023-01-27T12:20:09.513Z,6.10
2023-01-27T12:22:41.482Z,4.85
2023-01-27T12:25:23.172Z,8.38
2023-01-27T12:27:55.963Z,6.18
2023-01-27T12:30:28.506Z,2.83
2023-01-27T12:33:01.246Z,3.78
2023-01-27T12:35:35.430Z,3.30
2023-01-27T12:38:08.455Z,4.15
2023-01-27T12:40:45.052Z,2.90
2023-01-27T12:43:16.448Z,6.55
2023-01-27T12:45:46.402Z,3.80
2023-01-27T12:48:21.577Z,3.08
2023-01-27T12:51:06.104Z,4.25
2023-01-27T12:53:35.879Z,5.55
2023-01-27T12:58:44.239Z,5.93
2023-01-27T13:01:31.028Z,5.20
2023-01-27T13:04:04.508Z,4.90
2023-01-27T13:06:42.327Z,3.92
2023-01-27T13:09:27.027Z,4.18
2023-01-27T13:12:01.089Z,6.25
2023-01-27T13:14:31.645Z,4.32
2023-01-27T13:17:01.196Z,3.08
2023-01-27T13:19:39.145Z,5.38
2023-01-27T13:22:14.335Z,3.83
2023-01-27T13:24:45.243Z,4.90
2023-01-27T13:27:20.588Z,3.60
2023-01-27T13:29:56.165Z,4.28
2023-01-27T13:32:29.600Z,4.18
2023-01-27T13:35:06.813Z,3.72
2023-01-27T13:37:45.772Z,8.05
2023-01-27T13:40:21.631Z,3.60
2023-01-27T13:42:55.848Z,5.75
2023-01-27T13:45:28.747Z,11.20
2023-01-27T13:48:01.870Z,4.75
2023-01-27T13:50:35.659Z,9.00
2023-01-27T13:53:07.147Z,5.30
2023-01-27T13:55:50.833Z,4.45
2023-01-27T13:58:33.701Z,8.52
2023-01-27T14:01:17.283Z,3.53
2023-01-27T14:04:24.412Z,5.35
2023-01-27T14:07:04.691Z,5.63
2023-01-27T14:09:45.813Z,7.50
2023-01-27T14:12:28.404Z,7.63
2023-01-27T14:15:09.395Z,7.00
2023-01-27T14:17:47.063Z,14.32
2023-01-27T14:20:42.420Z,6.72
2023-01-27T14:23:25.877Z,6.35
2023-01-27T14:26:06.956Z,10.38
2023-01-27T14:28:53.084Z,8.55
2023-01-27T14:31:30.935Z,15.43
2023-01-27T14:34:06.903Z,13.68
2023-01-27T14:36:43.700Z,9.50
2023-01-27T14:39:21.662Z,9.77
2023-01-27T14:42:01.991Z,7.93
2023-01-27T14:47:23.578Z,4.57
2023-01-27T14:50:09.020Z,3.05
2023-01-27T14:52:46.386Z,5.07
2023-01-27T14:55:44.415Z,5.55
2023-01-27T14:58:29.450Z,5.72
2023-01-27T15:01:12.136Z,7.63
2023-01-27T15:04:13.288Z,4.97
2023-01-27T15:06:48.933Z,3.10
2023-01-27T15:09:42.172Z,5.13
2023-01-27T15:12:27.035Z,4.57
2023-01-27T15:15:29.173Z,5.25
2023-01-27T15:18:13.400Z,6.20
2023-01-27T15:21:13.105Z,6.47
2023-01-27T15:24:13.881Z,6.63
2023-01-27T15:26:43.941Z,5.50
2023-01-27T15:29:15.670Z,3.17
2023-01-27T15:32:05.182Z,3.70
2023-01-27T15:34:34.419Z,4.68
2023-01-27T15:40:04.400Z,4.28
2023-01-27T15:42:52.815Z,5.55
2023-01-27T15:45:30.704Z,5.22
2023-01-27T15:48:02.275Z,6.63
2023-01-27T15:50:37.221Z,10.10
2023-01-27T15:53:15.992Z,9.13
2023-01-27T15:55:51.524Z,6.38
2023-01-27T15:58:35.921Z,6.85
2023-01-27T16:01:08.827Z,8.43
2023-01-27T16:03:43.804Z,5.80
2023-01-27T16:06:18.102Z,9.02
2023-01-27T16:08:52.211Z,7.35
2023-01-27T16:11:39.849Z,7.40
2023-01-27T16:14:44.951Z,8.18
2023-01-27T16:17:25.156Z,7.43
2023-01-27T16:20:01.361Z,10.02
2023-01-27T16:22:36.841Z,7.75
2023-01-27T16:25:23.959Z,7.30
2023-01-27T16:28:00.499Z,4.78
2023-01-27T16:30:33.268Z,6.63
2023-01-27T16:33:07.075Z,7.47
2023-01-27T16:35:43.996Z,9.77
2023-01-27T16:38:25.335Z,7.38
2023-01-27T16:41:01.574Z,6.57
2023-01-27T16:43:35.749Z,4.20
2023-01-27T16:46:05.524Z,7.60
2023-01-27T16:48:39.446Z,4.72
2023-01-27T16:51:18.130Z,9.00
2023-01-27T16:53:49.053Z,7.15
2023-01-27T16:56:24.591Z,5.95
2023-01-27T16:58:55.848Z,5.25
2023-01-27T17:01:29.750Z,8.57
2023-01-27T17:04:18.040Z,5.97
2023-01-27T17:06:50.394Z,7.80
2023-01-27T17:09:25.089Z,9.52
2023-01-27T17:11:56.655Z,6.68
2023-01-27T17:14:32.273Z,9.45
2023-01-27T17:17:03.656Z,8.23
2023-01-27T17:19:35.582Z,9.02
2023-01-27T17:22:10.399Z,7.00
2023-01-27T17:24:51.009Z,10.02
2023-01-27T17:27:27.598Z,6.30
2023-01-27T17:30:04.302Z,8.18
2023-01-27T17:32:40.364Z,6.75
2023-01-27T17:35:22.825Z,8.98
2023-01-27T17:37:52.987Z,7.85
2023-01-27T17:40:23.515Z,5.38
2023-01-27T17:42:54.234Z,13.77
2023-01-27T17:45:28.498Z,12.65
2023-01-27T17:48:00.781Z,11.18
2023-01-27T17:50:36.692Z,8.90
2023-01-27T17:53:09.452Z,7.82
2023-01-27T17:55:39.374Z,5.65
2023-01-27T17:58:18.066Z,9.52
2023-01-27T18:00:49.520Z,8.95
2023-01-27T18:03:23.840Z,4.03
2023-01-27T18:05:55.661Z,6.25
2023-01-27T18:08:25.587Z,7.63
2023-01-27T18:10:55.366Z,10.13
2023-01-27T18:13:39.081Z,7.63
2023-01-27T18:16:16.577Z,7.35
2023-01-27T18:18:46.785Z,9.20
2023-01-27T18:21:18.996Z,15.40
2023-01-27T18:23:51.214Z,13.23
2023-01-27T18:26:24.560Z,12.18
2023-01-27T18:28:59.175Z,6.70
2023-01-27T18:31:32.741Z,5.72
2023-01-27T18:34:21.485Z,9.35
2023-01-27T18:36:55.873Z,6.25
2023-01-27T18:39:36.423Z,5.35
2023-01-27T18:42:11.838Z,6.38
2023-01-27T18:44:42.946Z,4.25
2023-01-27T18:47:33.128Z,6.45
2023-01-27T18:50:15.441Z,5.43
2023-01-27T18:52:45.621Z,7.63
2023-01-27T18:55:24.735Z,7.32
2023-01-27T18:57:55.118Z,7.13
2023-01-27T19:00:28.702Z,8.85
2023-01-27T19:03:01.488Z,6.97
2023-01-27T19:05:33.299Z,8.18
2023-01-27T19:08:02.768Z,14.23
2023-01-27T19:10:34.627Z,12.98
2023-01-27T19:13:05.763Z,15.48
2023-01-27T19:15:39.431Z,8.95
2023-01-27T19:18:16.430Z,7.15
2023-01-27T19:20:45.906Z,7.05
2023-01-27T19:23:16.842Z,5.57
2023-01-27T19:25:49.268Z,6.82
2023-01-27T19:28:22.323Z,6.05
2023-01-27T19:30:53.533Z,8.95
2023-01-27T19:33:24.859Z,13.57
2023-01-27T19:35:56.836Z,8.93
2023-01-27T19:38:29.312Z,12.07
2023-01-27T19:40:59.028Z,8.35
2023-01-27T19:43:28.181Z,8.20
2023-01-27T19:46:00.240Z,11.48
2023-01-27T19:48:29.596Z,11.40
2023-01-27T19:50:59.579Z,13.25
2023-01-27T19:53:28.566Z,9.73
2023-01-27T19:55:59.102Z,11.10
2023-01-27T19:58:29.631Z,11.20
2023-01-27T20:01:00.736Z,15.25
2023-01-27T20:03:31.162Z,12.52
2023-01-27T20:06:00.785Z,9.55
2023-01-27T20:08:29.931Z,11.27
2023-01-27T20:10:59.563Z,11.00
2023-01-27T20:13:28.590Z,9.13
2023-01-27T20:16:02.113Z,10.20
2023-01-27T20:18:31.479Z,10.90
2023-01-27T20:21:00.933Z,8.80
2023-01-27T20:23:30.561Z,10.45
2023-01-27T20:25:59.852Z,15.02
2023-01-27T20:28:28.847Z,8.33
2023-01-27T20:30:58.301Z,14.85
2023-01-27T20:33:29.300Z,11.15
2023-01-27T20:35:58.866Z,12.90
2023-01-27T20:38:28.023Z,8.33
2023-01-27T20:40:57.617Z,14.32
2023-01-27T20:43:35.178Z,17.83
2023-01-27T20:46:06.687Z,15.35
2023-01-27T20:48:39.603Z,12.68
2023-01-27T20:51:11.370Z,8.20
2023-01-27T20:53:45.336Z,11.52
2023-01-27T20:56:16.984Z,11.30
2023-01-27T20:58:47.036Z,10.23
2023-01-27T21:01:18.572Z,7.93
2023-01-27T21:03:50.464Z,6.93
2023-01-27T21:06:21.922Z,9.52
2023-01-27T21:08:51.894Z,9.15
2023-01-27T21:11:22.278Z,9.40
2023-01-27T21:13:52.593Z,10.00
2023-01-27T21:16:22.103Z,10.55
2023-01-27T21:18:53.765Z,7.72
2023-01-27T21:21:26.849Z,8.60
2023-01-27T21:23:56.321Z,7.40
2023-01-27T21:26:26.234Z,6.25
2023-01-27T21:28:55.479Z,10.70
2023-01-27T21:31:30.399Z,6.95
2023-01-27T21:34:01.380Z,8.50
2023-01-27T21:36:31.279Z,8.25
2023-01-27T21:39:02.433Z,7.07
2023-01-27T21:41:49.501Z,10.02
2023-01-27T21:44:37.841Z,9.68
2023-01-27T21:47:08.243Z,7.80
2023-01-27T21:49:55.757Z,9.63
2023-01-27T21:52:25.941Z,8.65
2023-01-27T21:54:55.066Z,11.23
2023-01-27T21:57:24.475Z,9.00
2023-01-27T21:59:53.734Z,9.52
2023-01-27T22:02:23.178Z,7.70
2023-01-27T22:04:53.827Z,11.18
2023-01-27T22:07:23.869Z,11.50
2023-01-27T22:09:52.851Z,8.23
2023-01-27T22:12:23.551Z,12.15
2023-01-27T22:14:52.639Z,11.27
2023-01-27T22:17:22.042Z,10.57
2023-01-27T22:19:52.434Z,10.23
2023-01-27T22:22:21.810Z,8.35
2023-01-27T22:24:50.940Z,14.30
2023-01-27T22:27:20.349Z,9.40
2023-01-27T22:29:49.331Z,11.95
2023-01-27T22:32:18.747Z,11.00
2023-01-27T22:34:47.906Z,10.80
2023-01-27T22:37:18.837Z,10.57
2023-01-27T22:39:47.915Z,11.95
2023-01-27T22:42:17.192Z,10.70
2023-01-27T22:44:46.555Z,10.00
2023-01-27T22:47:15.932Z,11.95
2023-01-27T22:49:45.325Z,13.85
2023-01-27T22:52:16.628Z,8.55
2023-01-27T22:54:47.168Z,11.45
2023-01-27T22:57:16.519Z,12.57
2023-01-27T22:59:45.515Z,11.80
2023-01-27T23:02:15.009Z,10.70
2023-01-27T23:04:44.191Z,9.43
2023-01-27T23:07:13.455Z,10.30
2023-01-27T23:09:42.545Z,11.80
2023-01-27T23:12:13.272Z,9.55
2023-01-27T23:14:42.403Z,11.55
2023-01-27T23:17:11.726Z,13.07
2023-01-27T23:19:40.824Z,12.73
2023-01-27T23:22:10.200Z,9.98
2023-01-27T23:24:39.664Z,10.95
2023-01-27T23:27:08.937Z,10.55
2023-01-27T23:29:39.476Z,11.55
2023-01-27T23:32:09.373Z,12.50
2023-01-27T23:34:38.440Z,11.15
2023-01-27T23:37:07.700Z,7.00
2023-01-27T23:39:36.841Z,8.80
2023-01-27T23:42:06.361Z,14.15
2023-01-27T23:44:35.554Z,11.13
2023-01-27T23:47:06.281Z,12.30
2023-01-27T23:49:35.410Z,8.68
2023-01-27T23:52:04.821Z,10.30
2023-01-27T23:54:34.224Z,12.25
2023-01-27T23:57:03.734Z,13.98
2023-01-27T23:59:32.722Z,14.10
